sensor_id;sensor_type;location;lat;lon;timestamp;P1;durP1;ratioP1;P2;durP2;ratioP2
56122;SDS011;42426;46.104;19.656;2023-07-31T00:00:03;5.40;;;4.80;;
56122;SDS011;42426;46.104;19.656;2023-07-31T00:02:29;26.15;;;8.20;;
56122;SDS011;42426;46.104;19.656;2023-07-31T00:04:55;15.23;;;5.18;;
56122;SDS011;42426;46.104;19.656;2023-07-31T00:07:22;9.52;;;4.88;;
56122;SDS011;42426;46.104;19.656;2023-07-31T00:09:48;28.10;;;8.10;;
56122;SDS011;42426;46.104;19.656;2023-07-31T00:12:14;14.38;;;6.07;;
56122;SDS011;42426;46.104;19.656;2023-07-31T00:14:40;7.50;;;5.10;;
56122;SDS011;42426;46.104;19.656;2023-07-31T00:17:06;6.85;;;5.15;;
56122;SDS011;42426;46.104;19.656;2023-07-31T00:19:32;9.18;;;5.88;;
56122;SDS011;42426;46.104;19.656;2023-07-31T00:21:58;8.27;;;5.38;;
56122;SDS011;42426;46.104;19.656;2023-07-31T00:24:24;28.92;;;6.78;;
56122;SDS011;42426;46.104;19.656;2023-07-31T00:26:50;26.30;;;6.57;;
56122;SDS011;42426;46.104;19.656;2023-07-31T00:29:16;10.88;;;5.38;;
56122;SDS011;42426;46.104;19.656;2023-07-31T00:31:42;7.80;;;4.88;;
56122;SDS011;42426;46.104;19.656;2023-07-31T00:34:08;6.18;;;5.40;;
56122;SDS011;42426;46.104;19.656;2023-07-31T00:36:34;5.30;;;4.53;;
56122;SDS011;42426;46.104;19.656;2023-07-31T00:39:01;6.65;;;4.88;;
56122;SDS011;42426;46.104;19.656;2023-07-31T00:41:27;8.00;;;5.53;;
56122;SDS011;42426;46.104;19.656;2023-07-31T00:43:53;8.50;;;4.63;;
56122;SDS011;42426;46.104;19.656;2023-07-31T00:46:19;13.63;;;5.97;;
56122;SDS011;42426;46.104;19.656;2023-07-31T00:48:45;23.45;;;5.75;;
56122;SDS011;42426;46.104;19.656;2023-07-31T00:51:11;20.58;;;6.38;;
56122;SDS011;42426;46.104;19.656;2023-07-31T00:53:37;12.68;;;5.85;;
56122;SDS011;42426;46.104;19.656;2023-07-31T00:56:04;8.63;;;5.32;;
56122;SDS011;42426;46.104;19.656;2023-07-31T00:58:30;7.60;;;4.65;;
56122;SDS011;42426;46.104;19.656;2023-07-31T01:00:57;4.75;;;4.25;;
56122;SDS011;42426;46.104;19.656;2023-07-31T01:03:23;10.23;;;5.40;;
56122;SDS011;42426;46.104;19.656;2023-07-31T01:05:54;5.13;;;4.40;;
56122;SDS011;42426;46.104;19.656;2023-07-31T01:08:24;7.70;;;4.55;;
56122;SDS011;42426;46.104;19.656;2023-07-31T01:13:21;6.25;;;4.53;;
56122;SDS011;42426;46.104;19.656;2023-07-31T01:15:47;5.72;;;4.95;;
56122;SDS011;42426;46.104;19.656;2023-07-31T01:18:13;6.30;;;5.00;;
56122;SDS011;42426;46.104;19.656;2023-07-31T01:20:39;7.22;;;4.82;;
56122;SDS011;42426;46.104;19.656;2023-07-31T01:23:32;7.20;;;5.10;;
56122;SDS011;42426;46.104;19.656;2023-07-31T01:31:03;5.60;;;5.00;;
56122;SDS011;42426;46.104;19.656;2023-07-31T01:33:31;6.80;;;5.30;;
56122;SDS011;42426;46.104;19.656;2023-07-31T01:35:57;7.38;;;5.93;;
56122;SDS011;42426;46.104;19.656;2023-07-31T01:38:23;5.78;;;4.90;;
56122;SDS011;42426;46.104;19.656;2023-07-31T01:40:53;5.45;;;4.75;;
56122;SDS011;42426;46.104;19.656;2023-07-31T01:43:19;7.68;;;5.00;;
56122;SDS011;42426;46.104;19.656;2023-07-31T01:45:45;6.53;;;5.18;;
56122;SDS011;42426;46.104;19.656;2023-07-31T01:48:11;7.28;;;5.32;;
56122;SDS011;42426;46.104;19.656;2023-07-31T01:50:37;6.28;;;5.50;;
56122;SDS011;42426;46.104;19.656;2023-07-31T01:53:03;7.15;;;5.93;;
56122;SDS011;42426;46.104;19.656;2023-07-31T01:55:29;6.22;;;5.57;;
56122;SDS011;42426;46.104;19.656;2023-07-31T01:57:55;5.85;;;5.35;;
56122;SDS011;42426;46.104;19.656;2023-07-31T02:00:21;7.57;;;5.80;;
56122;SDS011;42426;46.104;19.656;2023-07-31T02:02:48;5.57;;;4.88;;
56122;SDS011;42426;46.104;19.656;2023-07-31T02:05:14;6.80;;;5.18;;
56122;SDS011;42426;46.104;19.656;2023-07-31T02:07:40;5.47;;;4.93;;
56122;SDS011;42426;46.104;19.656;2023-07-31T02:10:06;5.55;;;5.05;;
56122;SDS011;42426;46.104;19.656;2023-07-31T02:12:32;7.03;;;5.28;;
56122;SDS011;42426;46.104;19.656;2023-07-31T02:14:58;5.88;;;5.05;;
56122;SDS011;42426;46.104;19.656;2023-07-31T02:17:24;6.43;;;4.93;;
56122;SDS011;42426;46.104;19.656;2023-07-31T02:19:51;4.85;;;4.28;;
56122;SDS011;42426;46.104;19.656;2023-07-31T02:22:17;7.70;;;4.78;;
56122;SDS011;42426;46.104;19.656;2023-07-31T02:24:43;5.38;;;4.70;;
56122;SDS011;42426;46.104;19.656;2023-07-31T02:27:09;6.35;;;5.53;;
56122;SDS011;42426;46.104;19.656;2023-07-31T02:29:35;7.07;;;5.40;;
56122;SDS011;42426;46.104;19.656;2023-07-31T02:32:01;6.75;;;5.32;;
56122;SDS011;42426;46.104;19.656;2023-07-31T02:34:27;7.82;;;4.80;;
56122;SDS011;42426;46.104;19.656;2023-07-31T02:36:53;6.65;;;5.30;;
56122;SDS011;42426;46.104;19.656;2023-07-31T02:39:19;7.13;;;4.80;;
56122;SDS011;42426;46.104;19.656;2023-07-31T02:41:46;6.60;;;4.80;;
56122;SDS011;42426;46.104;19.656;2023-07-31T02:44:12;6.00;;;5.07;;
56122;SDS011;42426;46.104;19.656;2023-07-31T02:46:39;6.10;;;5.25;;
56122;SDS011;42426;46.104;19.656;2023-07-31T02:49:05;8.10;;;5.28;;
56122;SDS011;42426;46.104;19.656;2023-07-31T02:51:31;7.78;;;5.43;;
56122;SDS011;42426;46.104;19.656;2023-07-31T02:53:57;5.93;;;5.10;;
56122;SDS011;42426;46.104;19.656;2023-07-31T02:56:23;7.07;;;5.50;;
56122;SDS011;42426;46.104;19.656;2023-07-31T02:58:50;8.73;;;4.88;;
56122;SDS011;42426;46.104;19.656;2023-07-31T03:01:16;6.80;;;4.55;;
56122;SDS011;42426;46.104;19.656;2023-07-31T03:03:42;5.20;;;4.57;;
56122;SDS011;42426;46.104;19.656;2023-07-31T03:06:08;5.75;;;4.80;;
56122;SDS011;42426;46.104;19.656;2023-07-31T03:08:34;5.95;;;4.47;;
56122;SDS011;42426;46.104;19.656;2023-07-31T03:11:00;5.15;;;4.22;;
56122;SDS011;42426;46.104;19.656;2023-07-31T03:13:26;12.85;;;6.13;;
56122;SDS011;42426;46.104;19.656;2023-07-31T03:15:52;7.13;;;4.85;;
56122;SDS011;42426;46.104;19.656;2023-07-31T03:18:18;7.45;;;5.75;;
56122;SDS011;42426;46.104;19.656;2023-07-31T03:20:44;7.30;;;5.68;;
56122;SDS011;42426;46.104;19.656;2023-07-31T03:23:10;7.22;;;5.07;;
56122;SDS011;42426;46.104;19.656;2023-07-31T03:25:37;7.13;;;5.43;;
56122;SDS011;42426;46.104;19.656;2023-07-31T03:28:03;6.15;;;5.13;;
56122;SDS011;42426;46.104;19.656;2023-07-31T03:30:29;6.38;;;5.65;;
56122;SDS011;42426;46.104;19.656;2023-07-31T03:32:55;7.53;;;5.43;;
56122;SDS011;42426;46.104;19.656;2023-07-31T03:35:21;7.15;;;5.65;;
56122;SDS011;42426;46.104;19.656;2023-07-31T03:37:47;6.13;;;5.10;;
56122;SDS011;42426;46.104;19.656;2023-07-31T03:40:13;7.70;;;5.93;;
56122;SDS011;42426;46.104;19.656;2023-07-31T03:42:39;7.53;;;5.22;;
56122;SDS011;42426;46.104;19.656;2023-07-31T03:45:05;6.47;;;5.65;;
56122;SDS011;42426;46.104;19.656;2023-07-31T03:47:32;6.15;;;5.30;;
56122;SDS011;42426;46.104;19.656;2023-07-31T03:49:58;6.05;;;5.32;;
56122;SDS011;42426;46.104;19.656;2023-07-31T03:52:24;7.15;;;5.75;;
56122;SDS011;42426;46.104;19.656;2023-07-31T03:54:50;8.00;;;5.57;;
56122;SDS011;42426;46.104;19.656;2023-07-31T03:57:16;6.72;;;5.90;;
56122;SDS011;42426;46.104;19.656;2023-07-31T03:59:42;8.88;;;5.43;;
56122;SDS011;42426;46.104;19.656;2023-07-31T04:02:08;6.57;;;5.30;;
56122;SDS011;42426;46.104;19.656;2023-07-31T04:04:34;8.10;;;6.30;;
56122;SDS011;42426;46.104;19.656;2023-07-31T04:07:00;6.43;;;5.28;;
56122;SDS011;42426;46.104;19.656;2023-07-31T04:09:26;7.82;;;5.53;;
56122;SDS011;42426;46.104;19.656;2023-07-31T04:11:52;7.80;;;5.38;;
56122;SDS011;42426;46.104;19.656;2023-07-31T04:14:18;7.75;;;6.30;;
56122;SDS011;42426;46.104;19.656;2023-07-31T04:16:44;9.05;;;5.68;;
56122;SDS011;42426;46.104;19.656;2023-07-31T04:19:10;6.85;;;5.68;;
56122;SDS011;42426;46.104;19.656;2023-07-31T04:21:41;10.07;;;6.18;;
56122;SDS011;42426;46.104;19.656;2023-07-31T04:24:07;10.27;;;6.40;;
56122;SDS011;42426;46.104;19.656;2023-07-31T04:26:33;6.15;;;5.55;;
56122;SDS011;42426;46.104;19.656;2023-07-31T04:28:59;6.70;;;5.30;;
56122;SDS011;42426;46.104;19.656;2023-07-31T04:31:25;7.10;;;5.97;;
56122;SDS011;42426;46.104;19.656;2023-07-31T04:33:51;6.82;;;5.65;;
56122;SDS011;42426;46.104;19.656;2023-07-31T04:36:17;9.00;;;6.15;;
56122;SDS011;42426;46.104;19.656;2023-07-31T04:38:43;7.28;;;5.80;;
56122;SDS011;42426;46.104;19.656;2023-07-31T04:41:09;11.07;;;6.03;;
56122;SDS011;42426;46.104;19.656;2023-07-31T04:43:35;8.00;;;5.63;;
56122;SDS011;42426;46.104;19.656;2023-07-31T04:46:04;6.82;;;5.50;;
56122;SDS011;42426;46.104;19.656;2023-07-31T04:48:30;6.68;;;5.72;;
56122;SDS011;42426;46.104;19.656;2023-07-31T04:50:56;6.65;;;5.55;;
56122;SDS011;42426;46.104;19.656;2023-07-31T04:53:22;7.03;;;5.05;;
56122;SDS011;42426;46.104;19.656;2023-07-31T04:55:48;7.63;;;6.38;;
56122;SDS011;42426;46.104;19.656;2023-07-31T04:58:14;7.68;;;6.00;;
56122;SDS011;42426;46.104;19.656;2023-07-31T05:00:40;12.35;;;5.50;;
56122;SDS011;42426;46.104;19.656;2023-07-31T05:03:06;9.85;;;6.38;;
56122;SDS011;42426;46.104;19.656;2023-07-31T05:05:32;7.75;;;6.35;;
56122;SDS011;42426;46.104;19.656;2023-07-31T05:07:58;8.57;;;6.47;;
56122;SDS011;42426;46.104;19.656;2023-07-31T05:10:25;6.72;;;5.22;;
56122;SDS011;42426;46.104;19.656;2023-07-31T05:12:51;7.57;;;5.95;;
56122;SDS011;42426;46.104;19.656;2023-07-31T05:15:17;6.75;;;5.70;;
56122;SDS011;42426;46.104;19.656;2023-07-31T05:17:43;11.73;;;5.53;;
56122;SDS011;42426;46.104;19.656;2023-07-31T05:20:09;18.38;;;5.80;;
56122;SDS011;42426;46.104;19.656;2023-07-31T05:22:35;12.15;;;5.20;;
56122;SDS011;42426;46.104;19.656;2023-07-31T05:25:01;7.55;;;5.10;;
56122;SDS011;42426;46.104;19.656;2023-07-31T05:27:27;8.23;;;4.75;;
56122;SDS011;42426;46.104;19.656;2023-07-31T05:29:53;22.23;;;5.15;;
56122;SDS011;42426;46.104;19.656;2023-07-31T05:32:19;11.20;;;4.80;;
56122;SDS011;42426;46.104;19.656;2023-07-31T05:34:45;6.07;;;4.65;;
56122;SDS011;42426;46.104;19.656;2023-07-31T05:37:11;8.38;;;4.93;;
56122;SDS011;42426;46.104;19.656;2023-07-31T05:39:38;8.35;;;4.60;;
56122;SDS011;42426;46.104;19.656;2023-07-31T05:42:04;9.32;;;5.15;;
56122;SDS011;42426;46.104;19.656;2023-07-31T05:44:30;8.57;;;4.28;;
56122;SDS011;42426;46.104;19.656;2023-07-31T05:46:56;12.90;;;4.10;;
56122;SDS011;42426;46.104;19.656;2023-07-31T05:49:22;7.60;;;4.05;;
56122;SDS011;42426;46.104;19.656;2023-07-31T05:51:48;9.30;;;5.13;;
56122;SDS011;42426;46.104;19.656;2023-07-31T05:54:14;4.95;;;3.92;;
56122;SDS011;42426;46.104;19.656;2023-07-31T05:56:40;6.88;;;3.63;;
56122;SDS011;42426;46.104;19.656;2023-07-31T05:59:08;6.20;;;4.43;;
56122;SDS011;42426;46.104;19.656;2023-07-31T06:01:34;9.55;;;4.50;;
56122;SDS011;42426;46.104;19.656;2023-07-31T06:04:00;7.80;;;4.05;;
56122;SDS011;42426;46.104;19.656;2023-07-31T06:06:27;6.65;;;4.68;;
56122;SDS011;42426;46.104;19.656;2023-07-31T06:08:53;6.47;;;4.30;;
56122;SDS011;42426;46.104;19.656;2023-07-31T06:11:20;9.32;;;5.43;;
56122;SDS011;42426;46.104;19.656;2023-07-31T06:13:46;4.63;;;4.10;;
56122;SDS011;42426;46.104;19.656;2023-07-31T06:16:14;9.82;;;4.60;;
56122;SDS011;42426;46.104;19.656;2023-07-31T06:18:40;13.35;;;4.60;;
56122;SDS011;42426;46.104;19.656;2023-07-31T06:21:07;6.40;;;3.85;;
56122;SDS011;42426;46.104;19.656;2023-07-31T06:23:33;10.98;;;5.20;;
56122;SDS011;42426;46.104;19.656;2023-07-31T06:25:59;5.65;;;4.15;;
56122;SDS011;42426;46.104;19.656;2023-07-31T06:28:29;6.97;;;5.03;;
56122;SDS011;42426;46.104;19.656;2023-07-31T06:30:55;5.18;;;3.95;;
56122;SDS011;42426;46.104;19.656;2023-07-31T06:33:21;11.75;;;4.10;;
56122;SDS011;42426;46.104;19.656;2023-07-31T06:35:47;4.25;;;3.67;;
56122;SDS011;42426;46.104;19.656;2023-07-31T06:38:13;4.68;;;4.15;;
56122;SDS011;42426;46.104;19.656;2023-07-31T06:40:40;5.38;;;4.03;;
56122;SDS011;42426;46.104;19.656;2023-07-31T06:43:06;5.47;;;3.85;;
56122;SDS011;42426;46.104;19.656;2023-07-31T06:45:35;4.88;;;3.83;;
56122;SDS011;42426;46.104;19.656;2023-07-31T06:48:03;9.45;;;4.50;;
56122;SDS011;42426;46.104;19.656;2023-07-31T06:50:29;7.28;;;5.80;;
56122;SDS011;42426;46.104;19.656;2023-07-31T06:52:56;11.32;;;4.20;;
56122;SDS011;42426;46.104;19.656;2023-07-31T06:55:22;25.08;;;5.50;;
56122;SDS011;42426;46.104;19.656;2023-07-31T06:57:50;30.55;;;7.38;;
56122;SDS011;42426;46.104;19.656;2023-07-31T07:00:16;9.73;;;4.05;;
56122;SDS011;42426;46.104;19.656;2023-07-31T07:02:43;6.72;;;4.22;;
56122;SDS011;42426;46.104;19.656;2023-07-31T07:05:09;6.72;;;3.97;;
56122;SDS011;42426;46.104;19.656;2023-07-31T07:07:35;8.70;;;3.83;;
56122;SDS011;42426;46.104;19.656;2023-07-31T07:10:02;9.02;;;4.28;;
56122;SDS011;42426;46.104;19.656;2023-07-31T07:12:29;9.48;;;4.60;;
56122;SDS011;42426;46.104;19.656;2023-07-31T07:14:55;13.27;;;4.15;;
56122;SDS011;42426;46.104;19.656;2023-07-31T07:17:22;7.80;;;4.18;;
56122;SDS011;42426;46.104;19.656;2023-07-31T07:19:49;6.68;;;4.85;;
56122;SDS011;42426;46.104;19.656;2023-07-31T07:22:15;8.55;;;4.15;;
56122;SDS011;42426;46.104;19.656;2023-07-31T07:24:41;7.68;;;3.90;;
56122;SDS011;42426;46.104;19.656;2023-07-31T07:27:07;11.00;;;3.90;;
56122;SDS011;42426;46.104;19.656;2023-07-31T07:29:34;6.80;;;3.60;;
56122;SDS011;42426;46.104;19.656;2023-07-31T07:32:00;4.78;;;3.25;;
56122;SDS011;42426;46.104;19.656;2023-07-31T07:34:26;8.40;;;3.85;;
56122;SDS011;42426;46.104;19.656;2023-07-31T07:36:53;8.60;;;3.72;;
56122;SDS011;42426;46.104;19.656;2023-07-31T07:39:19;4.57;;;3.25;;
56122;SDS011;42426;46.104;19.656;2023-07-31T07:41:45;12.32;;;4.57;;
56122;SDS011;42426;46.104;19.656;2023-07-31T07:44:11;12.32;;;4.22;;
56122;SDS011;42426;46.104;19.656;2023-07-31T07:46:38;12.98;;;3.95;;
56122;SDS011;42426;46.104;19.656;2023-07-31T07:49:04;8.95;;;4.13;;
56122;SDS011;42426;46.104;19.656;2023-07-31T07:51:30;10.70;;;3.80;;
56122;SDS011;42426;46.104;19.656;2023-07-31T07:53:59;11.10;;;4.20;;
56122;SDS011;42426;46.104;19.656;2023-07-31T07:56:26;10.75;;;3.53;;
56122;SDS011;42426;46.104;19.656;2023-07-31T07:58:53;9.25;;;3.75;;
56122;SDS011;42426;46.104;19.656;2023-07-31T08:01:19;10.50;;;4.40;;
56122;SDS011;42426;46.104;19.656;2023-07-31T08:03:46;10.48;;;4.65;;
56122;SDS011;42426;46.104;19.656;2023-07-31T08:06:12;10.90;;;5.68;;
56122;SDS011;42426;46.104;19.656;2023-07-31T08:08:38;9.77;;;5.45;;
56122;SDS011;42426;46.104;19.656;2023-07-31T08:11:04;8.75;;;4.65;;
56122;SDS011;42426;46.104;19.656;2023-07-31T08:15:57;6.93;;;3.72;;
56122;SDS011;42426;46.104;19.656;2023-07-31T08:18:23;8.50;;;3.70;;
56122;SDS011;42426;46.104;19.656;2023-07-31T08:20:49;14.50;;;4.15;;
56122;SDS011;42426;46.104;19.656;2023-07-31T08:57:19;12.48;;;3.92;;
56122;SDS011;42426;46.104;19.656;2023-07-31T08:59:45;13.93;;;4.63;;
56122;SDS011;42426;46.104;19.656;2023-07-31T09:02:11;12.52;;;4.07;;
56122;SDS011;42426;46.104;19.656;2023-07-31T09:04:38;20.50;;;4.90;;
56122;SDS011;42426;46.104;19.656;2023-07-31T09:07:04;11.10;;;3.75;;
56122;SDS011;42426;46.104;19.656;2023-07-31T09:09:31;6.47;;;3.03;;
56122;SDS011;42426;46.104;19.656;2023-07-31T09:11:57;7.13;;;3.88;;
56122;SDS011;42426;46.104;19.656;2023-07-31T09:14:27;8.30;;;3.58;;
56122;SDS011;42426;46.104;19.656;2023-07-31T09:16:56;5.47;;;3.42;;
56122;SDS011;42426;46.104;19.656;2023-07-31T09:19:33;15.73;;;4.10;;
56122;SDS011;42426;46.104;19.656;2023-07-31T09:22:01;9.25;;;3.78;;
56122;SDS011;42426;46.104;19.656;2023-07-31T09:24:30;3.97;;;3.40;;
56122;SDS011;42426;46.104;19.656;2023-07-31T09:26:57;9.32;;;3.70;;
56122;SDS011;42426;46.104;19.656;2023-07-31T09:29:24;15.23;;;3.88;;
56122;SDS011;42426;46.104;19.656;2023-07-31T09:31:51;11.23;;;5.25;;
56122;SDS011;42426;46.104;19.656;2023-07-31T09:34:18;5.85;;;3.22;;
56122;SDS011;42426;46.104;19.656;2023-07-31T09:36:48;8.23;;;4.15;;
56122;SDS011;42426;46.104;19.656;2023-07-31T09:39:15;9.32;;;3.40;;
56122;SDS011;42426;46.104;19.656;2023-07-31T09:41:45;7.47;;;3.40;;
56122;SDS011;42426;46.104;19.656;2023-07-31T09:44:11;4.97;;;2.88;;
56122;SDS011;42426;46.104;19.656;2023-07-31T09:46:37;5.60;;;3.80;;
56122;SDS011;42426;46.104;19.656;2023-07-31T09:49:04;9.65;;;2.97;;
56122;SDS011;42426;46.104;19.656;2023-07-31T09:51:31;11.85;;;3.35;;
56122;SDS011;42426;46.104;19.656;2023-07-31T09:53:57;4.97;;;3.55;;
56122;SDS011;42426;46.104;19.656;2023-07-31T09:56:23;6.88;;;3.60;;
56122;SDS011;42426;46.104;19.656;2023-07-31T09:58:49;6.28;;;3.33;;
56122;SDS011;42426;46.104;19.656;2023-07-31T10:01:15;5.38;;;3.60;;
56122;SDS011;42426;46.104;19.656;2023-07-31T10:03:42;3.50;;;3.20;;
56122;SDS011;42426;46.104;19.656;2023-07-31T10:06:11;6.70;;;4.07;;
56122;SDS011;42426;46.104;19.656;2023-07-31T10:08:37;4.88;;;3.42;;
56122;SDS011;42426;46.104;19.656;2023-07-31T10:11:04;7.38;;;3.58;;
56122;SDS011;42426;46.104;19.656;2023-07-31T10:13:31;4.63;;;3.53;;
56122;SDS011;42426;46.104;19.656;2023-07-31T10:15:58;11.43;;;4.05;;
56122;SDS011;42426;46.104;19.656;2023-07-31T10:18:26;5.93;;;3.75;;
56122;SDS011;42426;46.104;19.656;2023-07-31T10:20:52;4.57;;;3.47;;
56122;SDS011;42426;46.104;19.656;2023-07-31T10:23:18;7.88;;;3.85;;
56122;SDS011;42426;46.104;19.656;2023-07-31T10:25:44;7.18;;;4.32;;
56122;SDS011;42426;46.104;19.656;2023-07-31T10:28:12;5.15;;;3.80;;
56122;SDS011;42426;46.104;19.656;2023-07-31T10:30:38;6.60;;;4.30;;
56122;SDS011;42426;46.104;19.656;2023-07-31T10:33:05;3.95;;;3.22;;
56122;SDS011;42426;46.104;19.656;2023-07-31T10:35:34;5.47;;;3.25;;
56122;SDS011;42426;46.104;19.656;2023-07-31T10:38:09;5.88;;;3.72;;
56122;SDS011;42426;46.104;19.656;2023-07-31T10:40:35;9.75;;;3.35;;
56122;SDS011;42426;46.104;19.656;2023-07-31T10:43:02;6.82;;;3.75;;
56122;SDS011;42426;46.104;19.656;2023-07-31T10:45:39;5.65;;;3.10;;
56122;SDS011;42426;46.104;19.656;2023-07-31T10:48:14;8.77;;;3.63;;
56122;SDS011;42426;46.104;19.656;2023-07-31T10:50:51;8.75;;;3.72;;
56122;SDS011;42426;46.104;19.656;2023-07-31T10:53:24;6.85;;;3.58;;
56122;SDS011;42426;46.104;19.656;2023-07-31T10:58:18;5.22;;;3.30;;
56122;SDS011;42426;46.104;19.656;2023-07-31T11:00:44;8.57;;;4.68;;
56122;SDS011;42426;46.104;19.656;2023-07-31T11:03:15;6.90;;;4.40;;
56122;SDS011;42426;46.104;19.656;2023-07-31T11:10:44;3.97;;;3.03;;
56122;SDS011;42426;46.104;19.656;2023-07-31T11:13:10;5.95;;;3.10;;
56122;SDS011;42426;46.104;19.656;2023-07-31T11:15:36;5.43;;;3.53;;
56122;SDS011;42426;46.104;19.656;2023-07-31T11:18:03;4.38;;;3.08;;
56122;SDS011;42426;46.104;19.656;2023-07-31T11:20:30;5.78;;;3.50;;
56122;SDS011;42426;46.104;19.656;2023-07-31T11:23:03;9.82;;;3.83;;
56122;SDS011;42426;46.104;19.656;2023-07-31T11:25:30;5.22;;;2.97;;
56122;SDS011;42426;46.104;19.656;2023-07-31T11:27:56;3.60;;;2.78;;
56122;SDS011;42426;46.104;19.656;2023-07-31T11:30:23;7.05;;;2.95;;
56122;SDS011;42426;46.104;19.656;2023-07-31T11:32:49;6.70;;;3.10;;
56122;SDS011;42426;46.104;19.656;2023-07-31T11:35:16;4.78;;;2.70;;
56122;SDS011;42426;46.104;19.656;2023-07-31T11:37:43;3.83;;;3.40;;
56122;SDS011;42426;46.104;19.656;2023-07-31T11:40:10;3.88;;;3.10;;
56122;SDS011;42426;46.104;19.656;2023-07-31T11:42:37;6.18;;;3.20;;
56122;SDS011;42426;46.104;19.656;2023-07-31T11:45:04;3.75;;;2.97;;
56122;SDS011;42426;46.104;19.656;2023-07-31T11:47:31;4.18;;;2.90;;
56122;SDS011;42426;46.104;19.656;2023-07-31T11:49:59;4.90;;;3.10;;
56122;SDS011;42426;46.104;19.656;2023-07-31T11:52:26;4.65;;;2.88;;
56122;SDS011;42426;46.104;19.656;2023-07-31T11:54:53;3.83;;;2.80;;
56122;SDS011;42426;46.104;19.656;2023-07-31T11:57:19;3.55;;;2.95;;
56122;SDS011;42426;46.104;19.656;2023-07-31T11:59:46;5.53;;;3.50;;
56122;SDS011;42426;46.104;19.656;2023-07-31T12:02:12;4.93;;;3.28;;
56122;SDS011;42426;46.104;19.656;2023-07-31T12:04:38;4.65;;;3.33;;
56122;SDS011;42426;46.104;19.656;2023-07-31T12:07:07;9.15;;;3.63;;
56122;SDS011;42426;46.104;19.656;2023-07-31T12:09:33;5.78;;;3.80;;
56122;SDS011;42426;46.104;19.656;2023-07-31T12:12:00;5.63;;;3.13;;
56122;SDS011;42426;46.104;19.656;2023-07-31T12:14:27;4.80;;;3.00;;
56122;SDS011;42426;46.104;19.656;2023-07-31T12:16:57;7.65;;;3.45;;
56122;SDS011;42426;46.104;19.656;2023-07-31T12:19:27;3.58;;;2.90;;
56122;SDS011;42426;46.104;19.656;2023-07-31T12:21:54;4.65;;;2.58;;
56122;SDS011;42426;46.104;19.656;2023-07-31T12:24:21;4.88;;;3.10;;
56122;SDS011;42426;46.104;19.656;2023-07-31T12:26:47;4.50;;;3.47;;
56122;SDS011;42426;46.104;19.656;2023-07-31T12:29:14;5.22;;;3.17;;
56122;SDS011;42426;46.104;19.656;2023-07-31T12:31:43;10.35;;;3.22;;
56122;SDS011;42426;46.104;19.656;2023-07-31T12:34:16;6.50;;;3.08;;
56122;SDS011;42426;46.104;19.656;2023-07-31T12:39:09;4.75;;;3.08;;
56122;SDS011;42426;46.104;19.656;2023-07-31T12:41:35;5.00;;;3.28;;
56122;SDS011;42426;46.104;19.656;2023-07-31T12:44:01;4.47;;;3.75;;
56122;SDS011;42426;46.104;19.656;2023-07-31T12:46:28;6.32;;;3.10;;
56122;SDS011;42426;46.104;19.656;2023-07-31T12:48:54;9.18;;;3.45;;
56122;SDS011;42426;46.104;19.656;2023-07-31T12:51:20;5.45;;;3.05;;
56122;SDS011;42426;46.104;19.656;2023-07-31T12:53:47;6.28;;;3.20;;
56122;SDS011;42426;46.104;19.656;2023-07-31T12:56:13;4.38;;;3.00;;
56122;SDS011;42426;46.104;19.656;2023-07-31T12:58:39;5.05;;;3.20;;
56122;SDS011;42426;46.104;19.656;2023-07-31T13:01:05;4.47;;;3.00;;
56122;SDS011;42426;46.104;19.656;2023-07-31T13:03:31;8.10;;;3.05;;
56122;SDS011;42426;46.104;19.656;2023-07-31T13:05:57;6.22;;;3.53;;
56122;SDS011;42426;46.104;19.656;2023-07-31T13:08:24;7.82;;;3.42;;
56122;SDS011;42426;46.104;19.656;2023-07-31T13:10:50;7.00;;;3.50;;
56122;SDS011;42426;46.104;19.656;2023-07-31T13:13:16;6.93;;;3.22;;
56122;SDS011;42426;46.104;19.656;2023-07-31T13:15:43;3.72;;;3.00;;
56122;SDS011;42426;46.104;19.656;2023-07-31T13:18:10;7.45;;;3.40;;
56122;SDS011;42426;46.104;19.656;2023-07-31T13:20:36;5.50;;;3.55;;
56122;SDS011;42426;46.104;19.656;2023-07-31T13:23:02;3.03;;;2.70;;
56122;SDS011;42426;46.104;19.656;2023-07-31T13:25:28;10.23;;;3.53;;
56122;SDS011;42426;46.104;19.656;2023-07-31T13:27:54;6.22;;;2.97;;
56122;SDS011;42426;46.104;19.656;2023-07-31T13:30:20;7.30;;;3.35;;
56122;SDS011;42426;46.104;19.656;2023-07-31T13:32:46;11.18;;;3.75;;
56122;SDS011;42426;46.104;19.656;2023-07-31T13:35:13;5.28;;;3.80;;
56122;SDS011;42426;46.104;19.656;2023-07-31T13:37:39;4.03;;;3.40;;
56122;SDS011;42426;46.104;19.656;2023-07-31T13:40:05;6.82;;;3.13;;
56122;SDS011;42426;46.104;19.656;2023-07-31T13:42:31;5.32;;;2.97;;
56122;SDS011;42426;46.104;19.656;2023-07-31T13:44:58;4.57;;;3.47;;
56122;SDS011;42426;46.104;19.656;2023-07-31T13:47:24;8.27;;;3.28;;
56122;SDS011;42426;46.104;19.656;2023-07-31T13:49:50;4.40;;;3.50;;
56122;SDS011;42426;46.104;19.656;2023-07-31T13:52:16;5.82;;;3.30;;
56122;SDS011;42426;46.104;19.656;2023-07-31T13:54:42;6.57;;;3.70;;
56122;SDS011;42426;46.104;19.656;2023-07-31T13:57:08;9.30;;;3.90;;
56122;SDS011;42426;46.104;19.656;2023-07-31T13:59:34;7.90;;;3.40;;
56122;SDS011;42426;46.104;19.656;2023-07-31T14:02:01;7.18;;;3.70;;
56122;SDS011;42426;46.104;19.656;2023-07-31T14:04:28;9.88;;;3.40;;
56122;SDS011;42426;46.104;19.656;2023-07-31T14:06:55;7.88;;;3.83;;
56122;SDS011;42426;46.104;19.656;2023-07-31T14:09:21;6.35;;;3.10;;
56122;SDS011;42426;46.104;19.656;2023-07-31T14:11:47;6.43;;;3.28;;
56122;SDS011;42426;46.104;19.656;2023-07-31T14:14:13;6.32;;;3.35;;
56122;SDS011;42426;46.104;19.656;2023-07-31T14:16:39;6.78;;;3.65;;
56122;SDS011;42426;46.104;19.656;2023-07-31T14:19:05;5.05;;;3.22;;
56122;SDS011;42426;46.104;19.656;2023-07-31T14:21:33;4.70;;;3.67;;
56122;SDS011;42426;46.104;19.656;2023-07-31T14:23:59;12.68;;;4.40;;
56122;SDS011;42426;46.104;19.656;2023-07-31T14:26:25;7.80;;;4.07;;
56122;SDS011;42426;46.104;19.656;2023-07-31T14:28:51;4.82;;;4.10;;
56122;SDS011;42426;46.104;19.656;2023-07-31T14:31:17;6.43;;;4.75;;
56122;SDS011;42426;46.104;19.656;2023-07-31T14:33:43;9.68;;;5.18;;
56122;SDS011;42426;46.104;19.656;2023-07-31T14:36:10;7.07;;;4.63;;
56122;SDS011;42426;46.104;19.656;2023-07-31T14:38:36;4.25;;;3.17;;
56122;SDS011;42426;46.104;19.656;2023-07-31T14:41:02;5.00;;;3.80;;
56122;SDS011;42426;46.104;19.656;2023-07-31T14:43:28;5.28;;;3.92;;
56122;SDS011;42426;46.104;19.656;2023-07-31T14:45:54;5.55;;;3.92;;
56122;SDS011;42426;46.104;19.656;2023-07-31T14:48:24;5.57;;;3.40;;
56122;SDS011;42426;46.104;19.656;2023-07-31T14:50:50;6.93;;;3.67;;
56122;SDS011;42426;46.104;19.656;2023-07-31T14:53:16;5.07;;;3.55;;
56122;SDS011;42426;46.104;19.656;2023-07-31T14:55:43;6.00;;;3.97;;
56122;SDS011;42426;46.104;19.656;2023-07-31T14:58:09;6.03;;;4.18;;
56122;SDS011;42426;46.104;19.656;2023-07-31T15:00:36;6.28;;;3.40;;
56122;SDS011;42426;46.104;19.656;2023-07-31T15:03:02;7.25;;;3.30;;
56122;SDS011;42426;46.104;19.656;2023-07-31T15:05:28;8.02;;;4.72;;
56122;SDS011;42426;46.104;19.656;2023-07-31T15:07:54;6.00;;;4.57;;
56122;SDS011;42426;46.104;19.656;2023-07-31T15:10:20;4.55;;;3.35;;
56122;SDS011;42426;46.104;19.656;2023-07-31T15:12:46;6.45;;;3.80;;
56122;SDS011;42426;46.104;19.656;2023-07-31T15:15:13;11.13;;;3.35;;
56122;SDS011;42426;46.104;19.656;2023-07-31T15:17:39;3.53;;;3.15;;
56122;SDS011;42426;46.104;19.656;2023-07-31T15:20:05;7.18;;;4.20;;
56122;SDS011;42426;46.104;19.656;2023-07-31T15:22:32;6.68;;;3.35;;